A- A+ FrançaisEnglishEspañol中国

Services sur Internet Soldes sur Internet Des idées de cadeaux Météo Météo aéro

La météo à : Autours de vous Mulhouse-Habsheim Tarbes-Lourdes-PyrénéesAuxerre-Branches Paris-Charles-De-Gaulle

La météo aéronautique pour les pilotes, la préparation du vol avec les METAR (METeorological Aerodrome Report, message d'observation des conditions météorologiques pour l'aviation) et Les TAF (Terminal Aerodrome Forecast : message de prévision à court terme des conditions météorologiques pour l'aviation). Et les autres ressources comme les VAC (Visual Approch Chart) et les NOTAM (Notice To Airman) pour préprer les vols.

Aéroport Setif Ain Arnat (Algérie) / OACI DAAS/ IATA QSF

L'altitude de l'aéroport Setif Ain Arnat est de 1024 m = 3360 ft. Il est situé à proximité de Sétif (Algérie). La météo générale à 5 jours est disponible pour Ain Arnat situé à 1.4 km.

METAR de l'aéroport Setif Ain Arnat - DAAS

DAAS 090800Z 24005KT 9999 FEW010 SCT100 05/04 Q1023

Décodage du METAR de l'aéroport Setif Ain Arnat (DZ)

METAR émis par DAAS le lundi 9 décembre 2019 à 08:00 heure TU, il y a 25 minutes.

La visibilité est de supérieure à 10 km = supérieure à 6.2 sm.

La température est de 5°C = 41 °F et le point rosée est de 4°C = 39 °F . Ce qui correspond à 93% d'humidité relative.

Le QNH est de 1023 hPa = 30.21 inHg

Vent de 5 kt = 9 km/h, orienté à 240°.

Nuages : Quelques nuages à 1000 ft = 300 mètres. Nuages épars à 10000 ft = 3050 mètres.

TAF de l'aéroport Setif Ain Arnat - DAAS

DAAS 090500Z 0906/1006 34008KT 9999 FEW010 SCT026 PROB40 TEMPO 0906/0909 VRB02KT 2000 BR BKN010 PROB30 TEMPO 0906/0908 0500 FG TEMPO 0912/0921 5000 RA FEW023TCU BKN030

DAAS 090500Z 0906/1006 34008KT 9999 quelques nuages à 010 nuages épars à 026 probabilité de 40% d'avoir temporairement 0906/0909 VRB02KT 2000 brume couverture nuageuse fragmentée à 010 probabilité de 30% d'avoir temporairement 0906/0908 0500 brouillard temporairement 0912/0921 5000 pluie quelques nuages à 023TCU couverture nuageuse fragmentée à 030

Aéroport à proximité de Setif Ain Arnat

Météo générale à 5 jours à Ain Arnat (1.4 km)Aéroport Bejaia Soummam (64 km)Aéroport Jijell Taher (84 km)Aéroport Telergma (94 km)Aéroport Batna (100 km)Aéroport Constantine Ain El Bey (117 km)Aéroport Bou Saada (138 km)

Vue aérienne de l'aéroport Setif Ain Arnat

NOTAM de l'aéroport Setif Ain Arnat

Les NOTAM sont fournis sans aucune garantie de leur actualité. Le pilote est le seul responsable de la vérification de sa validité avant de l'utiliser opérationnellement pour préparer un vol ou l'utiliser lors de sa navigation.

Pas de NOTAM

Sources des données